Time;durP1;ratioP1;P1;durP2;ratioP2;P2;SDS_P1;SDS_P2;PMS_P1;PMS_P2;Temp;Humidity;BMP_temperature;BMP_pressure;BME280_temperature;BME280_humidity;BME280_pressure;Samples;Min_cycle;Max_cycle;Signal;HPM_P1;HPM_P2
2023/01/18 00:00:03;;;;;;;6.38;4.70;;;12.90;99.90;;;;;;5053741;28;20032;-66
2023/01/18 00:02:28;;;;;;;6.13;4.63;;;12.90;99.90;;;;;;5053849;28;20017;-63
2023/01/18 00:04:54;;;;;;;3.88;3.35;;;12.70;99.90;;;;;;5053707;28;20092;-68
2023/01/18 00:07:20;;;;;;;7.38;6.15;;;12.60;99.90;;;;;;5053233;28;20032;-70
2023/01/18 00:09:45;;;;;;;4.53;4.13;;;12.70;99.90;;;;;;5053402;28;20021;-66
2023/01/18 00:12:11;;;;;;;3.80;2.63;;;12.60;99.90;;;;;;5053681;28;20021;-69
2023/01/18 00:14:37;;;;;;;2.95;2.65;;;12.40;99.90;;;;;;5053448;28;20025;-63
2023/01/18 00:17:02;;;;;;;4.47;3.45;;;12.40;99.90;;;;;;5053442;28;20021;-62
2023/01/18 00:19:28;;;;;;;2.88;2.40;;;12.50;99.90;;;;;;5053383;28;20025;-65
2023/01/18 00:21:54;;;;;;;2.90;2.60;;;12.50;99.90;;;;;;5053449;28;20043;-67
2023/01/18 00:24:21;;;;;;;5.32;3.53;;;12.50;99.90;;;;;;5053139;28;20108;-69
2023/01/18 00:26:48;;;;;;;5.85;4.50;;;12.50;99.90;;;;;;5053371;28;20036;-70
2023/01/18 00:29:13;;;;;;;1.98;1.45;;;12.50;99.90;;;;;;5053649;28;20482;-67
2023/01/18 00:31:40;;;;;;;5.18;4.10;;;12.10;99.90;;;;;;5053503;28;20029;-68
2023/01/18 00:34:06;;;;;;;3.35;2.75;;;12.10;99.90;;;;;;5053424;28;20025;-65
2023/01/18 00:36:32;;;;;;;5.15;3.38;;;12.10;99.90;;;;;;5053042;28;20045;-61
2023/01/18 00:38:59;;;;;;;8.18;5.03;;;12.10;99.90;;;;;;5052953;28;20025;-66
2023/01/18 00:41:25;;;;;;;6.88;5.18;;;12.10;99.90;;;;;;5053282;28;20060;-63
2023/01/18 00:43:51;;;;;;;3.80;2.78;;;12.30;99.90;;;;;;5053197;28;20028;-70
2023/01/18 00:46:23;;;;;;;3.53;2.70;;;12.30;99.90;;;;;;5053097;28;20471;-62
2023/01/18 00:48:50;;;;;;;7.10;4.82;;;12.20;99.90;;;;;;5053347;28;20043;-67
2023/01/18 00:51:19;;;;;;;3.33;2.65;;;11.90;99.90;;;;;;5053319;28;20021;-67
2023/01/18 00:53:45;;;;;;;5.82;4.15;;;11.60;99.90;;;;;;5052941;28;20055;-66
2023/01/18 00:56:14;;;;;;;2.92;2.63;;;11.50;99.90;;;;;;5053115;28;20025;-63
2023/01/18 00:58:40;;;;;;;2.78;2.30;;;11.50;99.90;;;;;;5053083;28;20078;-64
2023/01/18 01:01:06;;;;;;;3.13;2.28;;;11.60;99.90;;;;;;5053297;28;20032;-66
2023/01/18 01:06:42;;;;;;;2.28;2.00;;;11.70;99.90;;;;;;5053108;28;20096;-65
2023/01/18 01:09:12;;;;;;;3.85;3.40;;;12.10;99.90;;;;;;5053167;28;20450;-67
2023/01/18 01:11:38;;;;;;;5.68;4.30;;;12.20;99.90;;;;;;5052872;28;20056;-63
2023/01/18 01:27:45;;;;;;;9.02;5.43;;;11.80;99.90;;;;;;5056630;28;20120;-68
2023/01/18 01:30:10;;;;;;;8.25;4.28;;;11.70;99.90;;;;;;5056561;28;20059;-63
2023/01/18 01:32:36;;;;;;;8.85;5.72;;;11.60;99.90;;;;;;5056468;28;20024;-68
2023/01/18 01:35:02;;;;;;;7.60;4.80;;;11.50;99.90;;;;;;5056558;28;20047;-71
2023/01/18 01:37:27;;;;;;;9.18;5.95;;;11.40;99.90;;;;;;5056091;28;20045;-70
2023/01/18 01:39:53;;;;;;;8.55;5.40;;;11.30;99.90;;;;;;5056358;28;20021;-65
2023/01/18 01:42:19;;;;;;;4.45;3.10;;;11.10;99.90;;;;;;5056491;28;20479;-64
2023/01/18 01:44:50;;;;;;;5.18;3.50;;;11.10;99.90;;;;;;5056375;28;20378;-64
2023/01/18 01:47:36;;;;;;;5.25;3.00;;;11.00;99.90;;;;;;5056540;28;20029;-67
2023/01/18 01:50:10;;;;;;;4.85;3.70;;;11.00;99.90;;;;;;5056536;28;20433;-66
2023/01/18 01:52:38;;;;;;;7.13;5.18;;;11.00;99.90;;;;;;5055932;28;20059;-65
2023/01/18 01:55:30;;;;;;;7.38;5.47;;;10.90;99.90;;;;;;5056310;28;20013;-63
2023/01/18 01:58:10;;;;;;;10.30;6.20;;;10.80;99.90;;;;;;5055930;28;20037;-67
2023/01/18 02:00:35;;;;;;;9.13;6.35;;;10.80;99.90;;;;;;5056217;28;20104;-67
2023/01/18 02:03:06;;;;;;;4.35;2.70;;;10.70;99.90;;;;;;5055887;28;20566;-60
2023/01/18 02:05:35;;;;;;;8.38;5.32;;;11.00;99.90;;;;;;5055960;28;20022;-69
2023/01/18 02:08:02;;;;;;;8.60;5.85;;;11.30;99.90;;;;;;5055890;28;20483;-71
2023/01/18 02:10:28;;;;;;;9.43;6.55;;;11.40;99.90;;;;;;5055667;28;20079;-62
2023/01/18 02:12:56;;;;;;;8.40;5.85;;;11.40;99.90;;;;;;5055960;28;20021;-66
2023/01/18 02:15:29;;;;;;;10.45;6.78;;;11.30;99.90;;;;;;5056007;28;20371;-66
2023/01/18 02:18:14;;;;;;;7.23;4.80;;;11.20;99.90;;;;;;5055745;28;20029;-68
2023/01/18 02:20:45;;;;;;;4.57;3.20;;;11.10;99.90;;;;;;5055695;28;20017;-68
2023/01/18 02:23:33;;;;;;;5.97;4.65;;;11.10;99.90;;;;;;5055566;28;20017;-66
2023/01/18 02:26:04;;;;;;;9.38;6.10;;;11.20;99.90;;;;;;5055535;28;20017;-65
2023/01/18 02:28:36;;;;;;;5.65;4.10;;;11.20;99.90;;;;;;5055509;28;20021;-69
2023/01/18 02:31:20;;;;;;;4.80;2.22;;;11.20;99.90;;;;;;5055181;28;20024;-62
2023/01/18 02:34:13;;;;;;;7.90;4.95;;;11.40;99.90;;;;;;5055376;28;20158;-67
2023/01/18 02:36:56;;;;;;;10.60;5.20;;;11.50;99.90;;;;;;5055017;28;20037;-66
2023/01/18 08:28:05;;;;;;;13.18;9.10;;;9.60;99.90;;;;;;5071122;28;20406;-71
2023/01/18 08:30:37;;;;;;;11.35;7.90;;;11.60;99.90;;;;;;5070899;28;20035;-64
2023/01/18 08:33:04;;;;;;;9.90;7.28;;;11.80;99.90;;;;;;5071109;28;20020;-68
2023/01/18 08:35:32;;;;;;;12.52;7.75;;;11.70;99.90;;;;;;5070891;28;20415;-69
2023/01/18 08:37:59;;;;;;;14.73;9.35;;;11.70;99.90;;;;;;5071259;28;20113;-61
2023/01/18 08:40:26;;;;;;;11.52;8.02;;;11.60;99.90;;;;;;5070474;28;20032;-69
2023/01/18 08:42:59;;;;;;;13.60;10.10;;;11.40;99.90;;;;;;5069222;28;20048;-68
2023/01/18 08:45:25;;;;;;;;;;;11.40;99.90;;;;;;5071003;28;20029;-71
2023/01/18 08:48:04;;;;;;;12.82;9.95;;;12.00;99.90;;;;;;5070480;28;19979;-63
2023/01/18 08:50:31;;;;;;;13.32;10.18;;;11.80;99.90;;;;;;5070559;28;20378;-64
2023/01/18 08:52:58;;;;;;;13.32;10.60;;;11.90;99.90;;;;;;5071272;28;20032;-63
2023/01/18 08:55:25;;;;;;;15.75;11.73;;;12.10;99.90;;;;;;5069853;28;20074;-63
2023/01/18 08:57:53;;;;;;;13.55;12.07;;;12.30;99.90;;;;;;5068847;28;20470;-69
2023/01/18 09:00:21;;;;;;;13.07;10.98;;;12.80;99.90;;;;;;5068919;28;20094;-71
2023/01/18 09:02:48;;;;;;;15.15;10.98;;;13.60;99.90;;;;;;5067513;28;20025;-66
2023/01/18 09:05:14;;;;;;;15.70;11.10;;;13.90;99.90;;;;;;5068893;28;20025;-72
2023/01/18 09:07:39;;;;;;;13.35;10.63;;;13.80;99.90;;;;;;5069969;28;20390;-71
2023/01/18 09:10:07;;;;;;;17.55;13.45;;;14.10;99.90;;;;;;5070161;28;20036;-63
2023/01/18 09:12:34;;;;;;;15.98;12.70;;;14.50;99.90;;;;;;5070508;28;20028;-70
2023/01/18 09:15:00;;;;;;;14.48;12.20;;;15.30;99.90;;;;;;5070593;28;20021;-69
2023/01/18 09:17:26;;;;;;;16.20;11.40;;;15.50;99.90;;;;;;5070455;28;20044;-64
2023/01/18 09:19:53;;;;;;;12.75;10.77;;;15.50;99.90;;;;;;5069909;28;20064;-72
2023/01/18 09:22:19;;;;;;;11.75;9.70;;;15.40;99.90;;;;;;5069959;28;20113;-75
2023/01/18 09:24:45;;;;;;;13.45;10.30;;;15.20;99.90;;;;;;5070311;28;20032;-75
2023/01/18 09:27:12;;;;;;;12.43;10.30;;;15.30;99.90;;;;;;5069038;28;20465;-66
2023/01/18 09:29:38;;;;;;;11.13;9.98;;;15.20;99.90;;;;;;5068730;28;20025;-66
2023/01/18 09:32:06;;;;;;;8.57;7.47;;;15.30;99.90;;;;;;5069469;28;20017;-62
2023/01/18 09:34:33;;;;;;;7.53;6.75;;;15.60;99.90;;;;;;5068905;28;20024;-72
2023/01/18 09:37:00;;;;;;;7.05;6.35;;;16.10;99.90;;;;;;5069103;28;20478;-70
2023/01/18 09:39:26;;;;;;;7.13;5.97;;;16.60;99.90;;;;;;5055825;28;20025;-70
2023/01/18 09:41:55;;;;;;;14.90;12.27;;;17.10;99.90;;;;;;5056254;28;20025;-67
2023/01/18 09:44:29;;;;;;;10.93;9.80;;;17.40;99.90;;;;;;5056576;28;20529;-62
2023/01/18 09:47:14;;;;;;;6.88;6.18;;;17.60;99.90;;;;;;5056551;28;20032;-60
2023/01/18 09:49:50;;;;;;;6.88;6.10;;;17.60;94.70;;;;;;5056459;28;20040;-70
2023/01/18 09:52:31;;;;;;;5.95;5.35;;;17.50;97.40;;;;;;5056657;28;20032;-71
2023/01/18 09:55:19;;;;;;;5.22;4.72;;;17.40;95.30;;;;;;5056399;28;20116;-66
2023/01/18 09:57:44;;;;;;;7.07;5.82;;;17.40;96.30;;;;;;5056525;28;20025;-62
2023/01/18 10:00:30;;;;;;;9.15;8.10;;;17.20;95.70;;;;;;5055173;28;20021;-67
2023/01/18 10:03:21;;;;;;;10.32;8.90;;;17.00;97.30;;;;;;5056128;28;20013;-68
2023/01/18 10:06:07;;;;;;;10.52;9.35;;;16.90;94.70;;;;;;5055792;28;20069;-66
2023/01/18 10:08:44;;;;;;;11.20;10.00;;;16.70;93.70;;;;;;5056201;28;20749;-72
2023/01/18 10:11:17;;;;;;;16.58;14.82;;;17.10;95.70;;;;;;5055912;28;20017;-73
2023/01/18 10:14:16;;;;;;;19.27;17.17;;;17.40;95.40;;;;;;5056202;28;20032;-62
2023/01/18 10:16:42;;;;;;;5.32;4.65;;;17.70;92.60;;;;;;5054275;28;20409;-72
2023/01/18 10:19:17;;;;;;;9.02;7.63;;;17.70;80.00;;;;;;5055864;28;20025;-65
2023/01/18 10:21:56;;;;;;;5.70;5.15;;;17.30;81.20;;;;;;5055846;28;20107;-64
2023/01/18 10:24:39;;;;;;;4.20;3.80;;;17.00;85.30;;;;;;5056037;28;20036;-68
2023/01/18 10:27:26;;;;;;;7.10;6.38;;;16.50;85.80;;;;;;5054661;28;20394;-68
2023/01/18 10:30:13;;;;;;;6.45;4.28;;;16.60;83.60;;;;;;5055518;28;20025;-75
2023/01/18 10:32:47;;;;;;;8.80;7.25;;;16.70;82.50;;;;;;5055002;28;20041;-69
2023/01/18 10:35:23;;;;;;;6.45;5.07;;;17.00;81.20;;;;;;5055893;28;20017;-70
2023/01/18 10:37:51;;;;;;;9.25;7.75;;;17.30;80.80;;;;;;5055461;28;20112;-73
2023/01/18 10:40:16;;;;;;;5.85;5.18;;;17.60;71.60;;;;;;5054277;28;20025;-69
2023/01/18 10:42:50;;;;;;;3.13;2.20;;;17.70;71.30;;;;;;5055298;28;20025;-67
2023/01/18 10:45:28;;;;;;;3.38;3.03;;;17.90;66.60;;;;;;5055011;28;20024;-71
2023/01/18 10:47:56;;;;;;;2.42;2.22;;;18.10;63.70;;;;;;5055644;28;20391;-66
2023/01/18 10:50:31;;;;;;;2.33;2.10;;;17.90;66.60;;;;;;5053787;28;20483;-63
2023/01/18 10:52:57;;;;;;;4.78;3.65;;;18.30;63.20;;;;;;5054140;28;20021;-73
2023/01/18 10:55:23;;;;;;;3.90;2.05;;;18.70;62.80;;;;;;5053890;28;20111;-70
2023/01/18 10:57:53;;;;;;;2.80;2.40;;;18.60;57.10;;;;;;5055596;28;20075;-70
2023/01/18 11:00:29;;;;;;;2.35;1.48;;;18.50;59.70;;;;;;5054961;28;20021;-64
2023/01/18 11:02:57;;;;;;;3.10;2.63;;;18.80;59.00;;;;;;5055350;28;20108;-71
2023/01/18 11:05:33;;;;;;;3.00;2.70;;;19.20;57.00;;;;;;5054973;28;20067;-70
2023/01/18 11:08:24;;;;;;;4.22;3.83;;;19.50;56.60;;;;;;5054953;28;20037;-68
2023/01/18 11:11:14;;;;;;;5.07;3.97;;;19.70;55.80;;;;;;5054842;28;20021;-70
2023/01/18 11:13:43;;;;;;;5.43;4.60;;;19.90;54.90;;;;;;5054787;28;20021;-68
2023/01/18 11:16:20;;;;;;;3.58;2.92;;;20.20;53.70;;;;;;5054631;28;20020;-71
2023/01/18 11:19:02;;;;;;;1.88;1.13;;;20.00;54.00;;;;;;5054568;28;20021;-72
2023/01/18 11:21:52;;;;;;;6.43;5.05;;;20.00;52.30;;;;;;5054312;28;20029;-68
2023/01/18 11:27:41;;;;;;;6.53;4.28;;;19.60;52.30;;;;;;5049884;28;20101;-66
2023/01/18 11:30:26;;;;;;;9.38;7.50;;;19.80;52.10;;;;;;5054131;28;20364;-72
2023/01/18 11:32:53;;;;;;;11.20;8.85;;;19.70;51.90;;;;;;5054574;28;20029;-72
2023/01/18 11:35:35;;;;;;;7.53;5.57;;;19.20;52.30;;;;;;5054583;28;20481;-77
2023/01/18 11:38:02;;;;;;;6.78;4.88;;;19.00;52.90;;;;;;5054448;28;20364;-72
2023/01/18 11:40:31;;;;;;;4.40;3.25;;;19.10;52.50;;;;;;5054399;28;20021;-68
2023/01/18 11:43:02;;;;;;;5.30;3.05;;;18.90;50.80;;;;;;5054343;28;20025;-65
2023/01/18 11:45:39;;;;;;;4.57;3.33;;;18.60;52.40;;;;;;5053229;28;20033;-65
2023/01/18 11:48:07;;;;;;;3.13;2.60;;;19.00;53.20;;;;;;5054093;28;20036;-73
2023/01/18 11:50:42;;;;;;;4.15;2.03;;;18.90;51.20;;;;;;5053235;28;20031;-69
2023/01/18 11:53:59;;;;;;;3.17;2.88;;;18.60;51.10;;;;;;5052230;28;20083;-67
2023/01/18 11:57:01;;;;;;;3.00;2.47;;;18.40;52.10;;;;;;5051698;28;20048;-68
2023/01/18 11:59:29;;;;;;;2.35;1.90;;;18.30;52.60;;;;;;5052607;28;20094;-64
2023/01/18 12:02:16;;;;;;;2.03;1.55;;;18.50;51.70;;;;;;5052193;28;20056;-72
2023/01/18 12:05:21;;;;;;;2.38;2.13;;;18.70;52.50;;;;;;5052506;28;20036;-65
2023/01/18 12:07:53;;;;;;;2.65;2.45;;;18.90;52.10;;;;;;5052460;28;20107;-70
2023/01/18 12:10:28;;;;;;;2.17;1.70;;;19.00;52.60;;;;;;5052371;28;20541;-71
2023/01/18 12:12:57;;;;;;;2.75;2.28;;;19.20;51.30;;;;;;5052510;28;20028;-72
2023/01/18 12:15:51;;;;;;;1.50;1.23;;;19.40;52.30;;;;;;5052095;28;20090;-66
2023/01/18 12:18:44;;;;;;;4.80;4.05;;;19.60;51.40;;;;;;5052384;28;20466;-68
2023/01/18 12:21:22;;;;;;;3.42;2.40;;;19.60;50.50;;;;;;5053198;28;20036;-66
2023/01/18 12:23:53;;;;;;;3.55;2.45;;;19.70;50.80;;;;;;5053410;28;20029;-67
2023/01/18 12:26:37;;;;;;;3.03;2.30;;;20.00;49.20;;;;;;5053273;28;20123;-70
2023/01/18 12:29:19;;;;;;;5.13;3.80;;;20.20;52.40;;;;;;5052449;28;20053;-67
2023/01/18 12:32:05;;;;;;;5.35;2.67;;;20.40;50.40;;;;;;5053361;28;20025;-66
2023/01/18 12:34:48;;;;;;;3.03;1.80;;;20.50;49.80;;;;;;5053918;28;20051;-64
2023/01/18 12:37:25;;;;;;;2.10;1.90;;;20.50;49.10;;;;;;5053630;28;20029;-65
2023/01/18 12:40:10;;;;;;;4.28;3.38;;;20.10;48.00;;;;;;5053671;28;20022;-69
2023/01/18 12:42:56;;;;;;;3.83;3.22;;;19.70;47.70;;;;;;5053317;28;20024;-71
2023/01/18 12:45:25;;;;;;;4.05;3.67;;;19.70;47.00;;;;;;5053681;28;20104;-67
2023/01/18 12:48:14;;;;;;;3.92;3.40;;;19.60;47.80;;;;;;5053395;28;20040;-71
2023/01/18 12:50:43;;;;;;;5.65;5.03;;;19.20;49.50;;;;;;5053548;28;20100;-74
2023/01/18 12:53:46;;;;;;;12.43;10.07;;;19.00;48.50;;;;;;5052925;28;20034;-72
2023/01/18 12:56:19;;;;;;;7.18;5.38;;;19.20;47.70;;;;;;5052668;28;20475;-67
2023/01/18 12:58:53;;;;;;;8.00;6.50;;;19.30;47.10;;;;;;5053565;28;20017;-69
2023/01/18 13:01:20;;;;;;;4.53;3.78;;;19.60;46.80;;;;;;5053481;28;20029;-67
2023/01/18 13:03:49;;;;;;;8.70;7.63;;;19.50;46.80;;;;;;5053391;28;20021;-69
2023/01/18 13:06:19;;;;;;;9.40;7.25;;;19.60;47.50;;;;;;5053298;28;20033;-70
2023/01/18 13:08:51;;;;;;;9.75;8.20;;;19.40;47.10;;;;;;5053804;28;20044;-64
2023/01/18 13:11:25;;;;;;;21.05;14.55;;;19.60;48.20;;;;;;5053313;28;20047;-68
2023/01/18 13:14:08;;;;;;;8.85;7.18;;;19.40;46.70;;;;;;5055641;28;20399;-67
2023/01/18 13:16:45;;;;;;;10.90;9.23;;;19.40;48.40;;;;;;5057104;28;20025;-70
2023/01/18 13:19:28;;;;;;;6.63;6.03;;;19.50;46.80;;;;;;5056895;28;20028;-69
2023/01/18 13:22:22;;;;;;;11.77;9.70;;;19.30;47.50;;;;;;5057127;28;20056;-69
2023/01/18 13:25:18;;;;;;;10.32;8.07;;;19.40;48.20;;;;;;5056525;28;20025;-70
2023/01/18 13:28:02;;;;;;;10.30;7.53;;;19.60;47.30;;;;;;5056667;28;20048;-69
2023/01/18 13:30:43;;;;;;;8.95;7.13;;;19.60;46.70;;;;;;5055832;28;20379;-66
2023/01/18 13:33:13;;;;;;;7.85;6.68;;;19.50;46.90;;;;;;5056919;28;20029;-70
2023/01/18 13:35:49;;;;;;;4.38;3.97;;;19.40;47.50;;;;;;5056418;28;20083;-71
2023/01/18 13:38:18;;;;;;;6.53;5.75;;;19.40;48.40;;;;;;5056323;28;20021;-69
2023/01/18 13:41:09;;;;;;;10.05;8.95;;;19.40;48.00;;;;;;5055716;28;20025;-72
2023/01/18 13:43:35;;;;;;;10.75;9.13;;;19.20;47.20;;;;;;5056491;28;20170;-65
2023/01/18 13:46:18;;;;;;;6.40;5.68;;;19.00;47.70;;;;;;5056367;28;20503;-71
2023/01/18 13:48:54;;;;;;;6.43;5.60;;;18.70;48.30;;;;;;5056468;28;20025;-69
2023/01/18 13:51:38;;;;;;;7.00;4.72;;;18.70;48.30;;;;;;5056102;28;20501;-76
2023/01/18 13:54:07;;;;;;;6.15;5.55;;;18.80;47.10;;;;;;5055306;28;20483;-69
2023/01/18 13:56:36;;;;;;;7.22;6.32;;;18.70;47.60;;;;;;5055769;28;20029;-63
2023/01/18 13:59:10;;;;;;;7.45;6.22;;;18.70;48.10;;;;;;5056082;28;20028;-73
2023/01/18 14:01:37;;;;;;;8.27;7.35;;;18.80;47.40;;;;;;5055714;28;20497;-67
2023/01/18 14:04:29;;;;;;;5.00;4.20;;;19.00;48.00;;;;;;5056146;28;20071;-62
2023/01/18 14:06:57;;;;;;;7.63;6.75;;;19.10;46.60;;;;;;5055794;28;20094;-73
2023/01/18 14:09:52;;;;;;;6.75;5.63;;;18.90;47.00;;;;;;5055831;28;20048;-72
2023/01/18 14:12:46;;;;;;;9.65;8.38;;;18.80;47.20;;;;;;5055683;28;20033;-66
2023/01/18 14:15:40;;;;;;;5.70;5.00;;;18.70;47.70;;;;;;5056408;28;20100;-65
2023/01/18 14:18:25;;;;;;;4.00;3.60;;;18.70;48.10;;;;;;5055460;28;20039;-69
2023/01/18 14:21:13;;;;;;;3.63;3.30;;;18.60;47.40;;;;;;5055849;28;20025;-63
2023/01/18 14:23:57;;;;;;;5.03;4.03;;;18.40;48.50;;;;;;5055280;28;20067;-65
2023/01/18 14:26:27;;;;;;;3.20;2.90;;;18.30;48.60;;;;;;5055333;28;20060;-68
2023/01/18 14:29:09;;;;;;;1.52;1.20;;;18.30;49.40;;;;;;5055790;28;20459;-68
2023/01/18 14:31:40;;;;;;;3.30;2.17;;;18.00;48.50;;;;;;5055941;28;20063;-65
2023/01/18 14:34:30;;;;;;;2.42;2.05;;;17.80;49.60;;;;;;5055781;28;20021;-66
2023/01/18 14:36:57;;;;;;;3.13;2.78;;;17.80;50.00;;;;;;5055380;28;20056;-67
2023/01/18 14:39:23;;;;;;;3.58;2.80;;;17.80;49.50;;;;;;5055525;28;20490;-73
2023/01/18 14:42:04;;;;;;;5.35;3.55;;;17.90;50.00;;;;;;5055345;28;20025;-64
2023/01/18 14:44:42;;;;;;;4.93;4.07;;;17.90;50.00;;;;;;5055290;28;20017;-66
2023/01/18 14:47:30;;;;;;;4.45;3.63;;;17.70;50.50;;;;;;5055232;28;20025;-69
2023/01/18 14:49:57;;;;;;;14.00;10.68;;;17.60;51.20;;;;;;5055319;28;20020;-67
2023/01/18 14:52:29;;;;;;;22.33;16.25;;;17.50;51.10;;;;;;5054986;28;20021;-68
2023/01/18 14:54:55;;;;;;;13.57;10.82;;;17.40;54.10;;;;;;5055176;28;20029;-71
2023/01/18 14:57:22;;;;;;;15.23;12.23;;;17.30;52.60;;;;;;5055385;28;20037;-67
2023/01/18 14:59:54;;;;;;;58.83;42.78;;;17.30;52.70;;;;;;5055237;28;20021;-67
2023/01/18 15:02:24;;;;;;;62.47;48.08;;;17.10;57.80;;;;;;5055195;28;20078;-70
2023/01/18 15:04:51;;;;;;;132.90;86.45;;;16.70;59.50;;;;;;5054983;28;20025;-65
2023/01/18 15:07:29;;;;;;;112.78;76.43;;;16.30;62.20;;;;;;5054681;28;20525;-71
2023/01/18 15:09:57;;;;;;;112.68;79.20;;;15.90;63.30;;;;;;5054917;28;20029;-63
2023/01/18 15:12:29;;;;;;;82.68;59.53;;;15.70;65.20;;;;;;5055039;28;20028;-76
2023/01/18 15:15:06;;;;;;;111.00;80.53;;;15.40;66.90;;;;;;5054853;28;20094;-63
2023/01/18 15:17:35;;;;;;;116.75;92.15;;;15.00;69.40;;;;;;5054504;28;20025;-66
2023/01/18 15:20:07;;;;;;;73.35;60.40;;;14.60;71.40;;;;;;5054446;28;20021;-66
2023/01/18 15:22:37;;;;;;;118.65;88.85;;;14.40;71.40;;;;;;5054660;28;20043;-64
2023/01/18 15:25:13;;;;;;;118.07;86.05;;;14.40;74.10;;;;;;5054953;28;20059;-67
2023/01/18 15:27:39;;;;;;;128.48;90.35;;;14.30;75.90;;;;;;5054217;28;20132;-69
2023/01/18 15:30:11;;;;;;;126.07;81.70;;;14.10;78.00;;;;;;5054409;28;20112;-67
2023/01/18 15:32:37;;;;;;;92.38;64.35;;;13.60;81.30;;;;;;5054212;28;20063;-67
2023/01/18 15:35:04;;;;;;;99.05;67.22;;;13.60;80.70;;;;;;5054050;28;20024;-64
2023/01/18 15:37:32;;;;;;;83.18;57.13;;;13.60;79.90;;;;;;5053922;28;20032;-69
2023/01/18 15:40:01;;;;;;;84.07;51.85;;;13.80;79.50;;;;;;5054296;28;20024;-73
2023/01/18 15:42:26;;;;;;;92.47;58.17;;;13.90;77.30;;;;;;5054510;28;20505;-64
2023/01/18 15:44:53;;;;;;;106.32;61.58;;;14.10;78.50;;;;;;5054241;28;20100;-64
2023/01/18 15:47:35;;;;;;;107.13;69.95;;;13.90;77.70;;;;;;5054324;28;20068;-66
2023/01/18 15:50:04;;;;;;;89.68;55.90;;;13.90;80.00;;;;;;5053985;28;20029;-66
2023/01/18 15:52:40;;;;;;;78.93;53.55;;;14.10;78.40;;;;;;5054330;28;20020;-64
2023/01/18 15:55:17;;;;;;;99.38;66.30;;;14.20;78.70;;;;;;5053968;28;20071;-67
2023/01/18 15:58:01;;;;;;;94.35;66.15;;;14.40;75.40;;;;;;5054415;28;20025;-64
2023/01/18 16:00:54;;;;;;;156.93;103.13;;;14.30;74.30;;;;;;5054094;28;20056;-66
2023/01/18 16:03:21;;;;;;;166.38;111.18;;;14.10;77.80;;;;;;5053938;28;20074;-70
2023/01/18 16:06:05;;;;;;;177.15;119.45;;;14.00;80.00;;;;;;5052790;28;20025;-74
2023/01/18 16:08:31;;;;;;;85.55;60.83;;;13.70;82.30;;;;;;5053832;28;20086;-72
2023/01/18 16:10:57;;;;;;;115.07;78.55;;;13.60;71.30;;;;;;5054079;28;20025;-66
2023/01/18 16:13:35;;;;;;;84.72;60.08;;;13.70;80.30;;;;;;5053902;28;20017;-68
2023/01/18 16:16:06;;;;;;;91.72;63.15;;;13.50;81.70;;;;;;5053861;28;20067;-70
2023/01/18 16:18:33;;;;;;;69.00;50.58;;;13.50;82.00;;;;;;5053505;28;20051;-75
2023/01/18 16:21:00;;;;;;;70.22;51.30;;;13.60;79.80;;;;;;5053794;28;20067;-62
2023/01/18 16:23:27;;;;;;;55.22;41.65;;;13.30;82.40;;;;;;5053925;28;20059;-68
2023/01/18 16:25:59;;;;;;;41.50;32.45;;;13.00;84.70;;;;;;5053812;28;20045;-71
2023/01/18 16:28:25;;;;;;;55.78;44.30;;;12.90;83.90;;;;;;5053844;28;20041;-71
2023/01/18 16:30:52;;;;;;;40.63;31.27;;;12.90;85.30;;;;;;5053629;28;20084;-62
2023/01/18 16:33:20;;;;;;;80.60;61.60;;;12.90;78.30;;;;;;5053752;28;20106;-65
2023/01/18 16:35:49;;;;;;;26.33;21.35;;;13.00;80.20;;;;;;5053459;28;20494;-70
2023/01/18 16:38:19;;;;;;;58.55;45.13;;;13.20;72.60;;;;;;5053721;28;20056;-72
2023/01/18 16:40:49;;;;;;;42.75;34.08;;;13.50;75.80;;;;;;5053532;28;20026;-72
2023/01/18 16:43:29;;;;;;;35.63;29.27;;;13.60;73.10;;;;;;5053609;28;20370;-70
2023/01/18 16:45:59;;;;;;;50.20;40.47;;;13.90;70.30;;;;;;5053563;28;20079;-72
2023/01/18 16:48:26;;;;;;;131.20;103.97;;;14.00;72.90;;;;;;5054867;28;20028;-71
2023/01/18 16:50:53;;;;;;;40.70;35.15;;;14.00;76.80;;;;;;5057515;28;20028;-65
2023/01/18 16:53:18;;;;;;;67.28;51.00;;;13.70;71.00;;;;;;5057318;28;20075;-63
2023/01/18 16:55:47;;;;;;;51.60;41.63;;;13.40;77.90;;;;;;5057463;28;20021;-67
2023/01/18 16:58:14;;;;;;;80.93;69.25;;;13.10;79.50;;;;;;5057427;28;20079;-66
2023/01/18 17:01:10;;;;;;;63.17;55.25;;;13.00;83.00;;;;;;5057300;28;20036;-66
2023/01/18 17:03:36;;;;;;;41.03;32.22;;;12.90;82.90;;;;;;5056938;28;20033;-72
2023/01/18 17:06:02;;;;;;;31.30;22.63;;;12.80;81.60;;;;;;5056930;28;20386;-73
2023/01/18 17:08:28;;;;;;;54.05;36.85;;;12.70;79.40;;;;;;5057096;28;20017;-67
2023/01/18 17:10:53;;;;;;;41.78;29.55;;;12.70;79.90;;;;;;5057359;28;20025;-70
2023/01/18 17:13:21;;;;;;;47.60;33.20;;;13.00;78.90;;;;;;5057023;28;20024;-64
2023/01/18 17:15:47;;;;;;;48.63;32.45;;;13.20;77.10;;;;;;5057173;28;20087;-67
2023/01/18 17:18:22;;;;;;;60.05;41.67;;;13.30;76.00;;;;;;5057127;28;20441;-61
2023/01/18 17:20:49;;;;;;;84.47;58.53;;;13.20;78.50;;;;;;5056964;28;20498;-73
2023/01/18 17:23:16;;;;;;;78.30;55.92;;;13.20;80.30;;;;;;5056641;28;20021;-66
2023/01/18 17:25:42;;;;;;;81.60;57.17;;;13.20;81.90;;;;;;5056895;28;20017;-66
2023/01/18 17:28:15;;;;;;;25.10;17.80;;;13.20;81.00;;;;;;5056318;28;20163;-62
2023/01/18 17:30:44;;;;;;;47.63;34.22;;;13.10;75.30;;;;;;5056590;28;20021;-62
2023/01/18 17:33:18;;;;;;;30.13;23.90;;;13.20;77.90;;;;;;5056569;28;20109;-70
2023/01/18 17:35:45;;;;;;;30.00;22.48;;;13.30;75.10;;;;;;5056673;28;20025;-71
2023/01/18 17:38:11;;;;;;;46.45;36.13;;;13.50;76.60;;;;;;5056954;28;20051;-69
2023/01/18 17:40:37;;;;;;;61.60;46.70;;;13.50;80.70;;;;;;5056504;28;20021;-72
2023/01/18 17:43:03;;;;;;;83.10;58.92;;;13.40;80.50;;;;;;5056299;28;20417;-68
2023/01/18 17:45:28;;;;;;;66.25;47.60;;;13.30;82.70;;;;;;5056418;28;20055;-62
2023/01/18 17:47:54;;;;;;;64.45;46.30;;;12.90;85.00;;;;;;5056429;28;20083;-65
2023/01/18 17:50:24;;;;;;;48.70;36.30;;;12.80;83.00;;;;;;5056454;28;20021;-63
2023/01/18 17:52:50;;;;;;;34.72;25.77;;;12.90;81.90;;;;;;5056375;28;20031;-69
2023/01/18 17:55:17;;;;;;;25.98;20.75;;;13.00;82.90;;;;;;5056140;28;20074;-69
2023/01/18 17:57:43;;;;;;;12.52;9.75;;;13.10;79.10;;;;;;5056201;28;20447;-68
2023/01/18 18:00:12;;;;;;;15.07;10.90;;;13.20;75.40;;;;;;5055494;28;20024;-65
2023/01/18 18:02:41;;;;;;;11.70;9.27;;;13.40;75.40;;;;;;5056182;28;20060;-71
2023/01/18 18:05:08;;;;;;;6.63;4.95;;;13.50;75.40;;;;;;5056182;28;20027;-65
2023/01/18 18:07:34;;;;;;;8.20;6.18;;;13.50;73.10;;;;;;5056066;28;20087;-64
2023/01/18 18:10:00;;;;;;;15.32;11.75;;;13.30;73.30;;;;;;5056102;28;20071;-68
2023/01/18 18:12:28;;;;;;;6.30;4.70;;;13.30;74.30;;;;;;5055966;28;20021;-67
2023/01/18 18:14:54;;;;;;;7.07;5.72;;;13.20;74.70;;;;;;5055903;28;20021;-72
2023/01/18 18:17:21;;;;;;;4.93;3.28;;;13.20;74.20;;;;;;5055796;28;20032;-66
2023/01/18 18:19:47;;;;;;;9.43;6.15;;;13.10;73.80;;;;;;5055741;28;20115;-68
2023/01/18 18:22:13;;;;;;;8.57;6.03;;;13.20;73.50;;;;;;5055594;28;20060;-71
2023/01/18 18:24:39;;;;;;;5.47;3.55;;;13.40;73.80;;;;;;5055882;28;20095;-64
2023/01/18 18:27:04;;;;;;;2.83;2.25;;;13.40;72.40;;;;;;5055532;28;20049;-63
2023/01/18 18:29:30;;;;;;;7.60;5.82;;;13.40;71.60;;;;;;5055188;28;20053;-69
2023/01/18 18:31:56;;;;;;;2.55;1.70;;;13.50;72.40;;;;;;5055296;28;20059;-70
2023/01/18 18:34:21;;;;;;;3.85;3.22;;;13.50;71.30;;;;;;5055532;28;20025;-71
2023/01/18 18:36:47;;;;;;;5.50;4.82;;;13.50;71.80;;;;;;5055736;28;20021;-70
2023/01/18 18:39:13;;;;;;;11.18;9.90;;;13.60;71.50;;;;;;5055616;28;20028;-64
2023/01/18 18:41:38;;;;;;;5.43;4.70;;;13.70;71.60;;;;;;5055364;28;20025;-66
2023/01/18 18:44:05;;;;;;;7.88;5.90;;;13.60;70.80;;;;;;5055251;28;20044;-66
2023/01/18 18:46:31;;;;;;;8.80;7.85;;;13.50;70.40;;;;;;5055003;28;20033;-73
2023/01/18 18:48:56;;;;;;;9.88;8.23;;;13.60;71.10;;;;;;5055289;28;20025;-71
2023/01/18 18:51:24;;;;;;;10.18;7.90;;;13.80;71.10;;;;;;5055137;28;20060;-69
2023/01/18 18:53:50;;;;;;;9.75;7.82;;;13.80;70.10;;;;;;5055045;28;20032;-65
2023/01/18 18:56:16;;;;;;;12.25;8.20;;;13.90;70.30;;;;;;5055104;28;20025;-60
2023/01/18 18:58:41;;;;;;;10.95;7.43;;;13.90;69.20;;;;;;5054802;28;20021;-66
2023/01/18 19:01:23;;;;;;;13.00;10.32;;;13.80;69.80;;;;;;5055021;28;20152;-67
2023/01/18 19:03:51;;;;;;;16.42;10.75;;;13.70;70.30;;;;;;5054761;28;20021;-66
2023/01/18 19:06:18;;;;;;;11.30;8.25;;;13.80;70.00;;;;;;5054659;28;20022;-63
2023/01/18 19:08:43;;;;;;;8.15;5.97;;;13.70;70.50;;;;;;5055078;28;20203;-71
2023/01/18 19:11:10;;;;;;;8.52;5.80;;;13.70;69.90;;;;;;5053889;28;20068;-67
2023/01/18 19:13:36;;;;;;;6.80;5.32;;;13.80;69.50;;;;;;5054400;28;20475;-72